sensor_id;sensor_type;location;lat;lon;timestamp;P1;durP1;ratioP1;P2;durP2;ratioP2
42332;SDS011;27984;51.476;5.702;2023-09-12T00:02:07;47.08;;;29.45;;
42332;SDS011;27984;51.476;5.702;2023-09-12T00:04:34;47.58;;;30.70;;
42332;SDS011;27984;51.476;5.702;2023-09-12T00:07:00;43.70;;;29.27;;
42332;SDS011;27984;51.476;5.702;2023-09-12T00:09:26;41.58;;;28.45;;
42332;SDS011;27984;51.476;5.702;2023-09-12T00:11:52;44.83;;;29.63;;
42332;SDS011;27984;51.476;5.702;2023-09-12T00:14:19;46.83;;;30.40;;
42332;SDS011;27984;51.476;5.702;2023-09-12T00:16:45;44.28;;;30.15;;
42332;SDS011;27984;51.476;5.702;2023-09-12T00:19:11;49.47;;;30.08;;
42332;SDS011;27984;51.476;5.702;2023-09-12T00:21:37;43.90;;;28.65;;
42332;SDS011;27984;51.476;5.702;2023-09-12T00:24:03;39.97;;;27.25;;
42332;SDS011;27984;51.476;5.702;2023-09-12T00:26:29;40.25;;;29.33;;
42332;SDS011;27984;51.476;5.702;2023-09-12T00:28:55;45.33;;;29.92;;
42332;SDS011;27984;51.476;5.702;2023-09-12T00:31:22;38.08;;;27.45;;
42332;SDS011;27984;51.476;5.702;2023-09-12T00:33:48;41.92;;;28.67;;
42332;SDS011;27984;51.476;5.702;2023-09-12T00:36:13;42.53;;;28.65;;
42332;SDS011;27984;51.476;5.702;2023-09-12T00:38:39;39.38;;;26.80;;
42332;SDS011;27984;51.476;5.702;2023-09-12T00:41:05;38.92;;;27.27;;
42332;SDS011;27984;51.476;5.702;2023-09-12T00:43:31;45.90;;;28.00;;
42332;SDS011;27984;51.476;5.702;2023-09-12T00:45:57;38.35;;;26.70;;
42332;SDS011;27984;51.476;5.702;2023-09-12T00:48:23;38.33;;;27.58;;
42332;SDS011;27984;51.476;5.702;2023-09-12T00:50:50;40.95;;;27.48;;
42332;SDS011;27984;51.476;5.702;2023-09-12T00:53:16;44.60;;;29.58;;
42332;SDS011;27984;51.476;5.702;2023-09-12T00:55:45;44.22;;;31.00;;
42332;SDS011;27984;51.476;5.702;2023-09-12T00:58:12;46.20;;;29.75;;
42332;SDS011;27984;51.476;5.702;2023-09-12T01:00:40;45.75;;;31.13;;
42332;SDS011;27984;51.476;5.702;2023-09-12T01:03:06;44.45;;;29.92;;
42332;SDS011;27984;51.476;5.702;2023-09-12T01:05:32;50.45;;;31.10;;
42332;SDS011;27984;51.476;5.702;2023-09-12T01:07:59;49.00;;;30.60;;
42332;SDS011;27984;51.476;5.702;2023-09-12T01:10:25;42.92;;;29.08;;
42332;SDS011;27984;51.476;5.702;2023-09-12T01:12:51;48.72;;;29.92;;
42332;SDS011;27984;51.476;5.702;2023-09-12T01:15:17;45.38;;;30.08;;
42332;SDS011;27984;51.476;5.702;2023-09-12T01:17:44;43.45;;;28.65;;
42332;SDS011;27984;51.476;5.702;2023-09-12T01:20:14;50.80;;;30.00;;
42332;SDS011;27984;51.476;5.702;2023-09-12T01:22:46;52.53;;;30.08;;
42332;SDS011;27984;51.476;5.702;2023-09-12T01:27:50;54.67;;;32.00;;
42332;SDS011;27984;51.476;5.702;2023-09-12T01:30:17;53.90;;;30.73;;
42332;SDS011;27984;51.476;5.702;2023-09-12T01:32:43;48.50;;;29.88;;
42332;SDS011;27984;51.476;5.702;2023-09-12T01:35:09;53.08;;;30.58;;
42332;SDS011;27984;51.476;5.702;2023-09-12T01:37:35;49.38;;;29.88;;
42332;SDS011;27984;51.476;5.702;2023-09-12T01:40:01;49.70;;;30.73;;
42332;SDS011;27984;51.476;5.702;2023-09-12T01:42:30;54.20;;;31.08;;
42332;SDS011;27984;51.476;5.702;2023-09-12T01:44:56;56.63;;;32.33;;
42332;SDS011;27984;51.476;5.702;2023-09-12T01:47:23;58.30;;;32.25;;
42332;SDS011;27984;51.476;5.702;2023-09-12T01:49:51;58.35;;;33.00;;
42332;SDS011;27984;51.476;5.702;2023-09-12T01:52:18;54.22;;;30.90;;
42332;SDS011;27984;51.476;5.702;2023-09-12T01:54:44;55.80;;;32.35;;
42332;SDS011;27984;51.476;5.702;2023-09-12T01:57:11;55.38;;;32.97;;
42332;SDS011;27984;51.476;5.702;2023-09-12T01:59:37;55.05;;;32.13;;
42332;SDS011;27984;51.476;5.702;2023-09-12T02:02:03;57.45;;;32.33;;
42332;SDS011;27984;51.476;5.702;2023-09-12T02:04:29;56.10;;;32.08;;
42332;SDS011;27984;51.476;5.702;2023-09-12T02:06:55;55.33;;;31.90;;
42332;SDS011;27984;51.476;5.702;2023-09-12T02:09:21;53.15;;;31.50;;
42332;SDS011;27984;51.476;5.702;2023-09-12T02:11:48;54.88;;;29.75;;
42332;SDS011;27984;51.476;5.702;2023-09-12T02:14:14;55.75;;;31.35;;
42332;SDS011;27984;51.476;5.702;2023-09-12T02:16:40;52.30;;;30.00;;
42332;SDS011;27984;51.476;5.702;2023-09-12T02:19:06;50.65;;;30.33;;
42332;SDS011;27984;51.476;5.702;2023-09-12T02:21:32;52.30;;;29.00;;
42332;SDS011;27984;51.476;5.702;2023-09-12T02:23:58;48.30;;;28.38;;
42332;SDS011;27984;51.476;5.702;2023-09-12T02:26:23;49.70;;;28.80;;
42332;SDS011;27984;51.476;5.702;2023-09-12T02:28:49;51.40;;;30.00;;
42332;SDS011;27984;51.476;5.702;2023-09-12T02:31:15;52.75;;;30.88;;
42332;SDS011;27984;51.476;5.702;2023-09-12T02:33:41;51.22;;;30.80;;
42332;SDS011;27984;51.476;5.702;2023-09-12T02:36:07;60.10;;;32.15;;
42332;SDS011;27984;51.476;5.702;2023-09-12T02:38:33;56.15;;;31.75;;
42332;SDS011;27984;51.476;5.702;2023-09-12T02:40:59;54.17;;;31.75;;
42332;SDS011;27984;51.476;5.702;2023-09-12T02:43:27;48.35;;;30.17;;
42332;SDS011;27984;51.476;5.702;2023-09-12T02:45:52;52.67;;;31.13;;
42332;SDS011;27984;51.476;5.702;2023-09-12T02:48:18;53.35;;;31.63;;
42332;SDS011;27984;51.476;5.702;2023-09-12T02:50:44;55.22;;;31.45;;
42332;SDS011;27984;51.476;5.702;2023-09-12T02:53:10;59.22;;;31.73;;
42332;SDS011;27984;51.476;5.702;2023-09-12T02:55:39;52.33;;;30.42;;
42332;SDS011;27984;51.476;5.702;2023-09-12T02:58:06;55.00;;;31.58;;
42332;SDS011;27984;51.476;5.702;2023-09-12T03:00:31;54.42;;;31.42;;
42332;SDS011;27984;51.476;5.702;2023-09-12T03:02:58;52.97;;;31.45;;
42332;SDS011;27984;51.476;5.702;2023-09-12T03:05:24;60.50;;;32.10;;
42332;SDS011;27984;51.476;5.702;2023-09-12T03:07:50;55.75;;;30.83;;
42332;SDS011;27984;51.476;5.702;2023-09-12T03:10:16;49.97;;;30.20;;
42332;SDS011;27984;51.476;5.702;2023-09-12T03:12:41;52.15;;;29.73;;
42332;SDS011;27984;51.476;5.702;2023-09-12T03:15:08;57.08;;;31.05;;
42332;SDS011;27984;51.476;5.702;2023-09-12T03:17:34;63.25;;;32.40;;
42332;SDS011;27984;51.476;5.702;2023-09-12T03:20:00;65.32;;;32.05;;
42332;SDS011;27984;51.476;5.702;2023-09-12T03:22:26;60.17;;;31.63;;
42332;SDS011;27984;51.476;5.702;2023-09-12T03:24:52;51.20;;;29.98;;
42332;SDS011;27984;51.476;5.702;2023-09-12T03:27:18;53.53;;;30.23;;
42332;SDS011;27984;51.476;5.702;2023-09-12T03:29:46;55.83;;;29.60;;
42332;SDS011;27984;51.476;5.702;2023-09-12T03:32:12;58.00;;;32.42;;
42332;SDS011;27984;51.476;5.702;2023-09-12T03:34:38;59.22;;;30.45;;
42332;SDS011;27984;51.476;5.702;2023-09-12T03:37:04;60.40;;;31.27;;
42332;SDS011;27984;51.476;5.702;2023-09-12T03:39:30;58.70;;;32.20;;
42332;SDS011;27984;51.476;5.702;2023-09-12T03:41:56;61.20;;;32.78;;
42332;SDS011;27984;51.476;5.702;2023-09-12T03:44:22;55.88;;;31.42;;
42332;SDS011;27984;51.476;5.702;2023-09-12T03:46:48;53.03;;;30.17;;
42332;SDS011;27984;51.476;5.702;2023-09-12T03:49:14;59.58;;;31.05;;
42332;SDS011;27984;51.476;5.702;2023-09-12T03:51:39;55.42;;;30.38;;
42332;SDS011;27984;51.476;5.702;2023-09-12T03:54:05;50.78;;;30.27;;
42332;SDS011;27984;51.476;5.702;2023-09-12T03:56:32;52.72;;;30.83;;
42332;SDS011;27984;51.476;5.702;2023-09-12T03:58:58;53.65;;;30.27;;
42332;SDS011;27984;51.476;5.702;2023-09-12T04:01:24;58.40;;;29.90;;
42332;SDS011;27984;51.476;5.702;2023-09-12T04:03:50;56.33;;;30.38;;
42332;SDS011;27984;51.476;5.702;2023-09-12T04:06:16;53.72;;;30.55;;
42332;SDS011;27984;51.476;5.702;2023-09-12T04:08:42;52.65;;;30.27;;
42332;SDS011;27984;51.476;5.702;2023-09-12T04:11:08;58.67;;;30.38;;
42332;SDS011;27984;51.476;5.702;2023-09-12T04:13:36;62.50;;;33.28;;
42332;SDS011;27984;51.476;5.702;2023-09-12T04:16:02;58.92;;;33.83;;
42332;SDS011;27984;51.476;5.702;2023-09-12T04:18:28;72.25;;;34.80;;
42332;SDS011;27984;51.476;5.702;2023-09-12T04:20:54;55.00;;;33.70;;
42332;SDS011;27984;51.476;5.702;2023-09-12T04:23:24;64.57;;;33.72;;
42332;SDS011;27984;51.476;5.702;2023-09-12T04:25:50;57.05;;;33.17;;
42332;SDS011;27984;51.476;5.702;2023-09-12T04:28:16;59.00;;;32.30;;
42332;SDS011;27984;51.476;5.702;2023-09-12T04:30:42;56.47;;;32.28;;
42332;SDS011;27984;51.476;5.702;2023-09-12T04:33:08;57.58;;;31.98;;
42332;SDS011;27984;51.476;5.702;2023-09-12T04:35:34;64.88;;;32.95;;
42332;SDS011;27984;51.476;5.702;2023-09-12T04:38:00;59.30;;;31.80;;
42332;SDS011;27984;51.476;5.702;2023-09-12T04:40:26;57.78;;;32.88;;
42332;SDS011;27984;51.476;5.702;2023-09-12T04:42:53;54.50;;;31.73;;
42332;SDS011;27984;51.476;5.702;2023-09-12T04:45:19;58.47;;;31.95;;
42332;SDS011;27984;51.476;5.702;2023-09-12T04:47:45;49.45;;;29.65;;
42332;SDS011;27984;51.476;5.702;2023-09-12T04:50:11;50.70;;;31.08;;
42332;SDS011;27984;51.476;5.702;2023-09-12T04:52:37;65.15;;;34.88;;
42332;SDS011;27984;51.476;5.702;2023-09-12T04:55:03;64.20;;;33.58;;
42332;SDS011;27984;51.476;5.702;2023-09-12T04:57:29;64.47;;;34.33;;
42332;SDS011;27984;51.476;5.702;2023-09-12T04:59:56;64.20;;;34.90;;
42332;SDS011;27984;51.476;5.702;2023-09-12T05:02:23;67.55;;;36.00;;
42332;SDS011;27984;51.476;5.702;2023-09-12T05:04:49;71.45;;;37.28;;
42332;SDS011;27984;51.476;5.702;2023-09-12T05:07:15;69.57;;;36.22;;
42332;SDS011;27984;51.476;5.702;2023-09-12T05:09:41;63.38;;;35.53;;
42332;SDS011;27984;51.476;5.702;2023-09-12T05:12:07;60.20;;;35.67;;
42332;SDS011;27984;51.476;5.702;2023-09-12T05:14:33;66.47;;;36.47;;
42332;SDS011;27984;51.476;5.702;2023-09-12T05:16:59;63.35;;;35.30;;
42332;SDS011;27984;51.476;5.702;2023-09-12T05:19:26;59.03;;;33.97;;
42332;SDS011;27984;51.476;5.702;2023-09-12T05:21:52;55.67;;;33.78;;
42332;SDS011;27984;51.476;5.702;2023-09-12T05:24:18;58.95;;;35.35;;
42332;SDS011;27984;51.476;5.702;2023-09-12T05:26:44;64.32;;;34.80;;
42332;SDS011;27984;51.476;5.702;2023-09-12T05:29:12;59.33;;;33.83;;
42332;SDS011;27984;51.476;5.702;2023-09-12T05:31:38;56.97;;;33.83;;
42332;SDS011;27984;51.476;5.702;2023-09-12T05:34:04;54.10;;;33.55;;
42332;SDS011;27984;51.476;5.702;2023-09-12T05:36:30;58.25;;;34.15;;
42332;SDS011;27984;51.476;5.702;2023-09-12T05:38:56;57.25;;;34.08;;
42332;SDS011;27984;51.476;5.702;2023-09-12T05:41:22;61.47;;;33.70;;
42332;SDS011;27984;51.476;5.702;2023-09-12T05:43:48;56.67;;;34.20;;
42332;SDS011;27984;51.476;5.702;2023-09-12T05:46:14;56.03;;;33.60;;
42332;SDS011;27984;51.476;5.702;2023-09-12T05:48:40;52.08;;;33.25;;
42332;SDS011;27984;51.476;5.702;2023-09-12T05:51:06;57.47;;;34.03;;
42332;SDS011;27984;51.476;5.702;2023-09-12T05:53:32;54.70;;;32.80;;
42332;SDS011;27984;51.476;5.702;2023-09-12T05:55:58;59.80;;;33.92;;
42332;SDS011;27984;51.476;5.702;2023-09-12T05:58:24;59.25;;;35.10;;
42332;SDS011;27984;51.476;5.702;2023-09-12T06:00:50;58.17;;;34.97;;
42332;SDS011;27984;51.476;5.702;2023-09-12T06:03:16;57.72;;;34.90;;
42332;SDS011;27984;51.476;5.702;2023-09-12T06:05:42;56.92;;;33.03;;
42332;SDS011;27984;51.476;5.702;2023-09-12T06:08:08;58.40;;;34.60;;
42332;SDS011;27984;51.476;5.702;2023-09-12T06:10:34;58.53;;;33.92;;
42332;SDS011;27984;51.476;5.702;2023-09-12T06:13:00;63.90;;;35.15;;
42332;SDS011;27984;51.476;5.702;2023-09-12T06:15:26;61.78;;;36.38;;
42332;SDS011;27984;51.476;5.702;2023-09-12T06:17:52;59.88;;;35.95;;
42332;SDS011;27984;51.476;5.702;2023-09-12T06:20:19;66.20;;;37.35;;
42332;SDS011;27984;51.476;5.702;2023-09-12T06:22:45;62.40;;;36.28;;
42332;SDS011;27984;51.476;5.702;2023-09-12T06:25:10;62.80;;;37.75;;
42332;SDS011;27984;51.476;5.702;2023-09-12T06:27:36;62.63;;;37.13;;
42332;SDS011;27984;51.476;5.702;2023-09-12T06:30:02;65.47;;;36.33;;
42332;SDS011;27984;51.476;5.702;2023-09-12T06:32:28;64.15;;;37.15;;
42332;SDS011;27984;51.476;5.702;2023-09-12T06:34:55;65.95;;;37.25;;
42332;SDS011;27984;51.476;5.702;2023-09-12T06:37:21;76.32;;;40.72;;
42332;SDS011;27984;51.476;5.702;2023-09-12T06:39:49;73.93;;;39.20;;
42332;SDS011;27984;51.476;5.702;2023-09-12T06:42:15;67.43;;;37.92;;
42332;SDS011;27984;51.476;5.702;2023-09-12T06:44:41;67.50;;;38.30;;
42332;SDS011;27984;51.476;5.702;2023-09-12T06:47:07;70.00;;;39.05;;
42332;SDS011;27984;51.476;5.702;2023-09-12T06:49:35;72.85;;;39.80;;
42332;SDS011;27984;51.476;5.702;2023-09-12T06:52:02;76.22;;;41.25;;
42332;SDS011;27984;51.476;5.702;2023-09-12T06:54:28;77.50;;;40.50;;
42332;SDS011;27984;51.476;5.702;2023-09-12T06:56:54;79.45;;;40.88;;
42332;SDS011;27984;51.476;5.702;2023-09-12T06:59:20;76.82;;;41.15;;
42332;SDS011;27984;51.476;5.702;2023-09-12T07:01:46;80.05;;;41.63;;
42332;SDS011;27984;51.476;5.702;2023-09-12T07:04:12;79.05;;;41.22;;
42332;SDS011;27984;51.476;5.702;2023-09-12T07:06:38;79.57;;;42.83;;
42332;SDS011;27984;51.476;5.702;2023-09-12T07:09:04;75.93;;;41.13;;
42332;SDS011;27984;51.476;5.702;2023-09-12T07:11:31;73.32;;;41.22;;
42332;SDS011;27984;51.476;5.702;2023-09-12T07:13:57;70.13;;;40.63;;
42332;SDS011;27984;51.476;5.702;2023-09-12T07:16:23;65.55;;;39.58;;
42332;SDS011;27984;51.476;5.702;2023-09-12T07:18:49;63.20;;;38.78;;
42332;SDS011;27984;51.476;5.702;2023-09-12T07:21:15;63.72;;;38.40;;
42332;SDS011;27984;51.476;5.702;2023-09-12T07:23:41;60.10;;;37.67;;
42332;SDS011;27984;51.476;5.702;2023-09-12T07:26:11;62.60;;;36.30;;
42332;SDS011;27984;51.476;5.702;2023-09-12T07:28:37;49.35;;;33.70;;
42332;SDS011;27984;51.476;5.702;2023-09-12T07:31:03;48.80;;;30.98;;
42332;SDS011;27984;51.476;5.702;2023-09-12T07:33:29;45.47;;;30.52;;
42332;SDS011;27984;51.476;5.702;2023-09-12T07:35:55;43.70;;;28.90;;
42332;SDS011;27984;51.476;5.702;2023-09-12T07:38:21;39.85;;;29.08;;
42332;SDS011;27984;51.476;5.702;2023-09-12T07:40:47;35.33;;;25.15;;
42332;SDS011;27984;51.476;5.702;2023-09-12T07:43:13;26.67;;;20.42;;
42332;SDS011;27984;51.476;5.702;2023-09-12T07:45:39;30.70;;;21.17;;
42332;SDS011;27984;51.476;5.702;2023-09-12T07:48:06;23.52;;;17.60;;
42332;SDS011;27984;51.476;5.702;2023-09-12T07:50:32;22.50;;;17.20;;
42332;SDS011;27984;51.476;5.702;2023-09-12T07:52:58;21.92;;;16.48;;
42332;SDS011;27984;51.476;5.702;2023-09-12T07:55:24;21.60;;;16.85;;
42332;SDS011;27984;51.476;5.702;2023-09-12T07:57:51;22.38;;;17.27;;
42332;SDS011;27984;51.476;5.702;2023-09-12T08:00:16;22.52;;;17.55;;
42332;SDS011;27984;51.476;5.702;2023-09-12T08:02:42;21.67;;;17.55;;
42332;SDS011;27984;51.476;5.702;2023-09-12T08:05:09;22.60;;;17.30;;
42332;SDS011;27984;51.476;5.702;2023-09-12T08:07:35;22.58;;;18.40;;
42332;SDS011;27984;51.476;5.702;2023-09-12T08:10:01;21.23;;;18.05;;
42332;SDS011;27984;51.476;5.702;2023-09-12T08:12:27;23.38;;;18.85;;
42332;SDS011;27984;51.476;5.702;2023-09-12T08:14:54;21.25;;;16.80;;
42332;SDS011;27984;51.476;5.702;2023-09-12T08:17:20;21.30;;;16.63;;
42332;SDS011;27984;51.476;5.702;2023-09-12T08:19:46;23.58;;;17.52;;
42332;SDS011;27984;51.476;5.702;2023-09-12T08:22:12;23.73;;;17.27;;
42332;SDS011;27984;51.476;5.702;2023-09-12T08:24:38;20.27;;;16.02;;
42332;SDS011;27984;51.476;5.702;2023-09-12T08:27:05;20.02;;;15.93;;
42332;SDS011;27984;51.476;5.702;2023-09-12T08:29:31;20.42;;;16.77;;
42332;SDS011;27984;51.476;5.702;2023-09-12T08:31:58;22.45;;;16.45;;
42332;SDS011;27984;51.476;5.702;2023-09-12T08:34:24;19.77;;;16.13;;
42332;SDS011;27984;51.476;5.702;2023-09-12T08:36:51;20.15;;;16.77;;
42332;SDS011;27984;51.476;5.702;2023-09-12T08:39:18;23.50;;;17.38;;
42332;SDS011;27984;51.476;5.702;2023-09-12T08:41:44;20.08;;;17.17;;
42332;SDS011;27984;51.476;5.702;2023-09-12T08:44:14;20.80;;;17.15;;
42332;SDS011;27984;51.476;5.702;2023-09-12T08:46:41;22.63;;;17.38;;
42332;SDS011;27984;51.476;5.702;2023-09-12T08:49:08;21.05;;;17.13;;
42332;SDS011;27984;51.476;5.702;2023-09-12T08:51:35;18.25;;;15.85;;
42332;SDS011;27984;51.476;5.702;2023-09-12T08:54:10;24.80;;;16.60;;
42332;SDS011;27984;51.476;5.702;2023-09-12T08:56:36;19.02;;;15.60;;
42332;SDS011;27984;51.476;5.702;2023-09-12T08:59:04;18.90;;;15.07;;
42332;SDS011;27984;51.476;5.702;2023-09-12T09:01:31;19.35;;;15.35;;
42332;SDS011;27984;51.476;5.702;2023-09-12T09:03:57;17.92;;;14.77;;
42332;SDS011;27984;51.476;5.702;2023-09-12T09:06:23;19.23;;;15.00;;
42332;SDS011;27984;51.476;5.702;2023-09-12T09:08:49;18.80;;;13.68;;
42332;SDS011;27984;51.476;5.702;2023-09-12T09:11:16;17.83;;;14.00;;
42332;SDS011;27984;51.476;5.702;2023-09-12T09:13:42;15.55;;;12.73;;
42332;SDS011;27984;51.476;5.702;2023-09-12T09:16:17;18.52;;;14.10;;
42332;SDS011;27984;51.476;5.702;2023-09-12T09:18:49;17.48;;;13.38;;
42332;SDS011;27984;51.476;5.702;2023-09-12T09:21:17;19.13;;;13.80;;
42332;SDS011;27984;51.476;5.702;2023-09-12T09:23:46;13.90;;;11.13;;
42332;SDS011;27984;51.476;5.702;2023-09-12T09:26:13;14.73;;;10.57;;
42332;SDS011;27984;51.476;5.702;2023-09-12T09:28:39;13.98;;;10.80;;
42332;SDS011;27984;51.476;5.702;2023-09-12T09:31:09;11.13;;;8.55;;
42332;SDS011;27984;51.476;5.702;2023-09-12T09:33:36;13.55;;;10.40;;
42332;SDS011;27984;51.476;5.702;2023-09-12T09:36:02;13.10;;;11.13;;
42332;SDS011;27984;51.476;5.702;2023-09-12T09:38:29;12.73;;;10.32;;
42332;SDS011;27984;51.476;5.702;2023-09-12T09:40:57;16.70;;;11.57;;
42332;SDS011;27984;51.476;5.702;2023-09-12T09:43:23;15.82;;;10.75;;
42332;SDS011;27984;51.476;5.702;2023-09-12T09:45:53;14.10;;;11.23;;
42332;SDS011;27984;51.476;5.702;2023-09-12T09:48:22;15.82;;;12.02;;
42332;SDS011;27984;51.476;5.702;2023-09-12T09:50:48;16.63;;;11.38;;
42332;SDS011;27984;51.476;5.702;2023-09-12T09:53:14;15.60;;;13.02;;
42332;SDS011;27984;51.476;5.702;2023-09-12T09:55:40;18.15;;;13.65;;
42332;SDS011;27984;51.476;5.702;2023-09-12T09:58:07;20.15;;;13.23;;
42332;SDS011;27984;51.476;5.702;2023-09-12T10:00:34;16.05;;;12.85;;
42332;SDS011;27984;51.476;5.702;2023-09-12T10:03:05;16.25;;;13.27;;
42332;SDS011;27984;51.476;5.702;2023-09-12T10:05:49;19.98;;;14.15;;
42332;SDS011;27984;51.476;5.702;2023-09-12T10:08:16;19.42;;;13.75;;
42332;SDS011;27984;51.476;5.702;2023-09-12T10:10:43;16.23;;;12.98;;
42332;SDS011;27984;51.476;5.702;2023-09-12T10:13:09;16.38;;;13.55;;
42332;SDS011;27984;51.476;5.702;2023-09-12T10:15:35;18.33;;;13.00;;
42332;SDS011;27984;51.476;5.702;2023-09-12T10:18:03;22.52;;;12.95;;
42332;SDS011;27984;51.476;5.702;2023-09-12T10:20:50;17.73;;;13.85;;
42332;SDS011;27984;51.476;5.702;2023-09-12T10:23:28;16.58;;;13.45;;
42332;SDS011;27984;51.476;5.702;2023-09-12T10:25:55;18.10;;;14.10;;
42332;SDS011;27984;51.476;5.702;2023-09-12T10:28:22;15.93;;;13.25;;
42332;SDS011;27984;51.476;5.702;2023-09-12T10:30:49;15.55;;;12.93;;
42332;SDS011;27984;51.476;5.702;2023-09-12T10:33:15;17.50;;;13.38;;
42332;SDS011;27984;51.476;5.702;2023-09-12T10:35:41;15.55;;;13.15;;
42332;SDS011;27984;51.476;5.702;2023-09-12T10:38:07;19.13;;;13.57;;
42332;SDS011;27984;51.476;5.702;2023-09-12T10:40:35;17.40;;;13.10;;
42332;SDS011;27984;51.476;5.702;2023-09-12T10:43:02;18.77;;;13.20;;
42332;SDS011;27984;51.476;5.702;2023-09-12T10:45:33;16.88;;;12.68;;
42332;SDS011;27984;51.476;5.702;2023-09-12T10:48:01;15.27;;;12.80;;
42332;SDS011;27984;51.476;5.702;2023-09-12T10:50:27;17.33;;;13.50;;
42332;SDS011;27984;51.476;5.702;2023-09-12T10:52:54;17.08;;;12.23;;
42332;SDS011;27984;51.476;5.702;2023-09-12T10:55:20;18.23;;;13.57;;
42332;SDS011;27984;51.476;5.702;2023-09-12T10:58:05;15.20;;;12.55;;
42332;SDS011;27984;51.476;5.702;2023-09-12T11:00:31;15.25;;;12.07;;
42332;SDS011;27984;51.476;5.702;2023-09-12T11:05:51;13.02;;;11.65;;
42332;SDS011;27984;51.476;5.702;2023-09-12T11:08:18;13.40;;;11.43;;
42332;SDS011;27984;51.476;5.702;2023-09-12T11:10:44;17.92;;;11.90;;
42332;SDS011;27984;51.476;5.702;2023-09-12T11:13:16;16.23;;;10.82;;
42332;SDS011;27984;51.476;5.702;2023-09-12T11:16:09;12.27;;;9.45;;
42332;SDS011;27984;51.476;5.702;2023-09-12T11:18:29;11.00;;;9.77;;
42332;SDS011;27984;51.476;5.702;2023-09-12T11:20:59;13.75;;;9.43;;
42332;SDS011;27984;51.476;5.702;2023-09-12T11:23:28;14.85;;;10.27;;
42332;SDS011;27984;51.476;5.702;2023-09-12T11:26:03;10.93;;;9.07;;
42332;SDS011;27984;51.476;5.702;2023-09-12T11:28:30;13.48;;;9.30;;
42332;SDS011;27984;51.476;5.702;2023-09-12T11:30:57;12.68;;;10.57;;
42332;SDS011;27984;51.476;5.702;2023-09-12T11:33:24;12.07;;;8.88;;
42332;SDS011;27984;51.476;5.702;2023-09-12T11:35:51;11.93;;;9.45;;
42332;SDS011;27984;51.476;5.702;2023-09-12T11:38:25;9.90;;;8.88;;
42332;SDS011;27984;51.476;5.702;2023-09-12T11:40:52;11.57;;;8.90;;
42332;SDS011;27984;51.476;5.702;2023-09-12T11:43:22;10.35;;;7.05;;
42332;SDS011;27984;51.476;5.702;2023-09-12T11:45:49;10.40;;;7.95;;
42332;SDS011;27984;51.476;5.702;2023-09-12T11:48:16;10.13;;;7.30;;
42332;SDS011;27984;51.476;5.702;2023-09-12T11:50:42;8.40;;;6.88;;
42332;SDS011;27984;51.476;5.702;2023-09-12T11:53:14;10.38;;;6.55;;
42332;SDS011;27984;51.476;5.702;2023-09-12T11:55:44;8.55;;;6.15;;
42332;SDS011;27984;51.476;5.702;2023-09-12T11:58:11;7.85;;;6.00;;
42332;SDS011;27984;51.476;5.702;2023-09-12T12:00:37;9.43;;;7.60;;
42332;SDS011;27984;51.476;5.702;2023-09-12T12:03:03;9.77;;;7.60;;
42332;SDS011;27984;51.476;5.702;2023-09-12T12:05:29;12.43;;;7.90;;
42332;SDS011;27984;51.476;5.702;2023-09-12T12:07:56;10.27;;;7.90;;
42332;SDS011;27984;51.476;5.702;2023-09-12T12:10:23;8.60;;;7.68;;
42332;SDS011;27984;51.476;5.702;2023-09-12T12:12:52;10.85;;;7.63;;
42332;SDS011;27984;51.476;5.702;2023-09-12T12:15:19;12.02;;;7.45;;
42332;SDS011;27984;51.476;5.702;2023-09-12T12:17:45;11.88;;;7.32;;
42332;SDS011;27984;51.476;5.702;2023-09-12T12:20:11;10.23;;;7.32;;
42332;SDS011;27984;51.476;5.702;2023-09-12T12:22:38;9.98;;;7.63;;
42332;SDS011;27984;51.476;5.702;2023-09-12T12:25:08;8.07;;;7.28;;
42332;SDS011;27984;51.476;5.702;2023-09-12T12:27:38;11.95;;;8.23;;
42332;SDS011;27984;51.476;5.702;2023-09-12T12:30:13;10.02;;;7.95;;
42332;SDS011;27984;51.476;5.702;2023-09-12T12:32:43;10.88;;;9.10;;
42332;SDS011;27984;51.476;5.702;2023-09-12T12:35:17;11.60;;;8.80;;
42332;SDS011;27984;51.476;5.702;2023-09-12T12:37:43;13.00;;;8.57;;
42332;SDS011;27984;51.476;5.702;2023-09-12T12:40:12;13.15;;;8.43;;
42332;SDS011;27984;51.476;5.702;2023-09-12T12:42:39;11.93;;;8.00;;
42332;SDS011;27984;51.476;5.702;2023-09-12T12:45:13;14.63;;;9.05;;
42332;SDS011;27984;51.476;5.702;2023-09-12T12:47:40;9.30;;;8.15;;
42332;SDS011;27984;51.476;5.702;2023-09-12T12:50:15;9.60;;;7.55;;
42332;SDS011;27984;51.476;5.702;2023-09-12T12:52:46;10.20;;;8.35;;
42332;SDS011;27984;51.476;5.702;2023-09-12T12:55:15;10.00;;;7.95;;
42332;SDS011;27984;51.476;5.702;2023-09-12T12:57:43;11.13;;;7.82;;
42332;SDS011;27984;51.476;5.702;2023-09-12T13:12:52;10.80;;;7.55;;
42332;SDS011;27984;51.476;5.702;2023-09-12T13:15:19;11.45;;;8.63;;
42332;SDS011;27984;51.476;5.702;2023-09-12T13:17:45;10.93;;;8.82;;
42332;SDS011;27984;51.476;5.702;2023-09-12T13:20:14;13.23;;;9.25;;
42332;SDS011;27984;51.476;5.702;2023-09-12T13:25:52;12.23;;;8.23;;
42332;SDS011;27984;51.476;5.702;2023-09-12T13:28:18;10.90;;;7.57;;
42332;SDS011;27984;51.476;5.702;2023-09-12T13:30:44;10.20;;;7.60;;
42332;SDS011;27984;51.476;5.702;2023-09-12T13:33:11;8.45;;;6.80;;
42332;SDS011;27984;51.476;5.702;2023-09-12T13:35:37;9.88;;;8.27;;
42332;SDS011;27984;51.476;5.702;2023-09-12T13:38:03;12.15;;;8.07;;
42332;SDS011;27984;51.476;5.702;2023-09-12T13:40:35;11.30;;;7.65;;
42332;SDS011;27984;51.476;5.702;2023-09-12T13:43:01;8.30;;;6.65;;
42332;SDS011;27984;51.476;5.702;2023-09-12T14:00:55;12.88;;;8.45;;
42332;SDS011;27984;51.476;5.702;2023-09-12T14:03:21;9.45;;;7.38;;
42332;SDS011;27984;51.476;5.702;2023-09-12T14:05:47;11.68;;;7.97;;
42332;SDS011;27984;51.476;5.702;2023-09-12T14:08:13;9.65;;;7.60;;
42332;SDS011;27984;51.476;5.702;2023-09-12T14:10:47;10.63;;;7.72;;
42332;SDS011;27984;51.476;5.702;2023-09-12T14:13:18;11.55;;;7.40;;
42332;SDS011;27984;51.476;5.702;2023-09-12T14:15:48;11.52;;;7.68;;
42332;SDS011;27984;51.476;5.702;2023-09-12T14:18:24;10.00;;;7.25;;
42332;SDS011;27984;51.476;5.702;2023-09-12T14:20:53;10.35;;;7.15;;
42332;SDS011;27984;51.476;5.702;2023-09-12T14:23:22;9.43;;;7.68;;
42332;SDS011;27984;51.476;5.702;2023-09-12T14:25:48;9.48;;;8.00;;
42332;SDS011;27984;51.476;5.702;2023-09-12T14:28:14;8.23;;;7.00;;
42332;SDS011;27984;51.476;5.702;2023-09-12T14:30:40;9.57;;;7.40;;
42332;SDS011;27984;51.476;5.702;2023-09-12T14:33:09;9.38;;;7.13;;
42332;SDS011;27984;51.476;5.702;2023-09-12T14:35:38;11.32;;;7.18;;
42332;SDS011;27984;51.476;5.702;2023-09-12T14:38:04;12.73;;;7.65;;
42332;SDS011;27984;51.476;5.702;2023-09-12T14:40:29;10.73;;;7.45;;
42332;SDS011;27984;51.476;5.702;2023-09-12T14:42:55;10.27;;;8.18;;
42332;SDS011;27984;51.476;5.702;2023-09-12T14:45:22;10.00;;;8.18;;
42332;SDS011;27984;51.476;5.702;2023-09-12T14:47:50;12.25;;;8.55;;
42332;SDS011;27984;51.476;5.702;2023-09-12T14:50:16;10.05;;;8.10;;
42332;SDS011;27984;51.476;5.702;2023-09-12T14:52:44;9.90;;;8.55;;
42332;SDS011;27984;51.476;5.702;2023-09-12T14:55:10;13.05;;;8.68;;
42332;SDS011;27984;51.476;5.702;2023-09-12T14:57:37;11.90;;;8.13;;
42332;SDS011;27984;51.476;5.702;2023-09-12T15:00:03;10.05;;;8.20;;
42332;SDS011;27984;51.476;5.702;2023-09-12T15:02:29;11.10;;;7.60;;